createdAt,value
2023-03-12T00:00:40.854Z,21.76
2023-03-12T00:01:45.245Z,21.74
2023-03-12T00:02:49.641Z,21.7
2023-03-12T00:03:54.538Z,21.73
2023-03-12T00:04:58.979Z,21.72
2023-03-12T00:06:10.165Z,21.72
2023-03-12T00:07:14.926Z,21.77
2023-03-12T00:08:19.284Z,21.76
2023-03-12T00:09:23.591Z,21.75
2023-03-12T00:10:27.900Z,21.73
2023-03-12T00:11:32.189Z,21.71
2023-03-12T00:12:36.523Z,21.7
2023-03-12T00:13:40.939Z,21.65
2023-03-12T00:14:45.269Z,21.64
2023-03-12T00:15:49.612Z,21.66
2023-03-12T00:16:54.037Z,21.66
2023-03-12T00:17:58.361Z,21.64
2023-03-12T00:19:02.672Z,21.61
2023-03-12T00:20:06.986Z,21.57
2023-03-12T00:21:11.342Z,21.58
2023-03-12T00:22:15.680Z,21.57
2023-03-12T00:23:19.988Z,21.6
2023-03-12T00:24:24.301Z,21.58
2023-03-12T00:25:28.606Z,21.58
2023-03-12T00:26:33.024Z,21.57
2023-03-12T00:27:37.334Z,21.55
2023-03-12T00:28:41.661Z,21.56
2023-03-12T00:29:46.079Z,21.56
2023-03-12T00:30:50.426Z,21.51
2023-03-12T00:31:56.602Z,21.48
2023-03-12T00:33:00.930Z,21.48
2023-03-12T00:34:05.432Z,21.47
2023-03-12T00:35:09.751Z,21.49
2023-03-12T00:36:14.118Z,21.51
2023-03-12T00:37:18.435Z,21.51
2023-03-12T00:38:22.761Z,21.5
2023-03-12T00:39:27.068Z,21.49
2023-03-12T00:40:31.391Z,21.47
2023-03-12T00:41:35.720Z,21.44
2023-03-12T00:42:40.016Z,21.47
2023-03-12T00:43:44.306Z,21.44
2023-03-12T00:44:48.627Z,21.46
2023-03-12T00:45:52.948Z,21.47
2023-03-12T00:46:57.327Z,21.43
2023-03-12T00:48:02.034Z,21.46
2023-03-12T00:49:06.356Z,21.44
2023-03-12T00:50:10.704Z,21.45
2023-03-12T00:51:15.023Z,21.43
2023-03-12T00:52:19.336Z,21.4
2023-03-12T00:53:23.633Z,21.35
2023-03-12T00:54:27.935Z,21.39
2023-03-12T00:55:32.302Z,21.41
2023-03-12T00:56:36.610Z,21.43
2023-03-12T00:57:40.908Z,21.41
2023-03-12T00:58:45.219Z,21.38
2023-03-12T00:59:49.524Z,21.41
2023-03-12T01:00:53.863Z,21.39
2023-03-12T01:01:58.406Z,21.37
2023-03-12T01:03:02.711Z,21.36
2023-03-12T01:04:07.138Z,21.36
2023-03-12T01:05:11.911Z,21.33
2023-03-12T01:06:16.230Z,21.35
2023-03-12T01:07:20.506Z,21.34
2023-03-12T01:08:24.836Z,21.35
2023-03-12T01:09:29.174Z,21.34
2023-03-12T01:10:33.455Z,21.32
2023-03-12T01:11:37.740Z,21.31
2023-03-12T01:12:42.100Z,21.31
2023-03-12T01:13:46.456Z,21.28
2023-03-12T01:14:50.796Z,21.28
2023-03-12T01:15:55.226Z,21.3
2023-03-12T01:16:59.775Z,21.29
2023-03-12T01:18:04.047Z,21.3
2023-03-12T01:19:08.404Z,21.3
2023-03-12T01:20:12.743Z,21.29
2023-03-12T01:21:17.107Z,21.29
2023-03-12T01:22:21.403Z,21.26
2023-03-12T01:23:25.712Z,21.3
2023-03-12T01:24:30.058Z,21.27
2023-03-12T01:25:34.414Z,21.26
2023-03-12T01:26:38.767Z,21.28
2023-03-12T01:27:43.081Z,21.26
2023-03-12T01:28:47.391Z,21.25
2023-03-12T01:29:51.706Z,21.27
2023-03-12T01:30:56.000Z,21.25
2023-03-12T01:32:00.289Z,21.25
2023-03-12T01:33:04.641Z,21.21
2023-03-12T01:34:08.928Z,21.19
2023-03-12T01:35:13.247Z,21.15
2023-03-12T01:36:17.874Z,21.19
2023-03-12T01:37:22.429Z,21.2
2023-03-12T01:38:26.760Z,21.19
2023-03-12T01:39:31.058Z,21.16
2023-03-12T01:40:35.370Z,21.17
2023-03-12T01:41:39.737Z,21.19
2023-03-12T01:42:44.045Z,21.17
2023-03-12T01:43:48.592Z,21.18
2023-03-12T01:44:52.888Z,21.19
2023-03-12T01:45:57.341Z,21.18
2023-03-12T01:47:01.876Z,21.18
2023-03-12T01:48:06.193Z,21.16
2023-03-12T01:49:10.506Z,21.16
2023-03-12T01:50:14.824Z,21.14
2023-03-12T01:51:19.119Z,21.16
2023-03-12T01:52:23.404Z,21.13
2023-03-12T01:53:27.782Z,21.13
2023-03-12T01:54:32.155Z,21.12
2023-03-12T01:55:36.445Z,21.12
2023-03-12T01:56:40.737Z,21.12
2023-03-12T01:57:45.039Z,21.12
2023-03-12T01:58:49.345Z,21.07
2023-03-12T01:59:53.715Z,21.09
2023-03-12T02:00:58.153Z,21.1
2023-03-12T02:02:02.608Z,21.09
2023-03-12T02:03:06.910Z,21.09
2023-03-12T02:04:11.499Z,21.08
2023-03-12T02:05:15.999Z,21.03
2023-03-12T02:06:20.349Z,21.02
2023-03-12T02:07:24.659Z,21.06
2023-03-12T02:08:28.955Z,21.03
2023-03-12T02:09:33.314Z,21.04
2023-03-12T02:10:40.796Z,21.03
2023-03-12T02:11:45.074Z,21.03
2023-03-12T02:12:49.405Z,21.03
2023-03-12T02:13:53.966Z,21.04
2023-03-12T02:14:58.271Z,21.05
2023-03-12T02:16:02.691Z,21.05
2023-03-12T02:17:07.006Z,21.06
2023-03-12T02:18:11.290Z,21.06
2023-03-12T02:19:15.608Z,21.03
2023-03-12T02:20:19.890Z,21.01
2023-03-12T02:21:24.220Z,21.02
2023-03-12T02:22:28.506Z,21.01
2023-03-12T02:23:32.823Z,21.02
2023-03-12T02:24:37.154Z,21.02
2023-03-12T02:25:41.421Z,21.01
2023-03-12T02:26:46.224Z,21
2023-03-12T02:27:50.516Z,21.01
2023-03-12T02:28:54.840Z,21
2023-03-12T02:29:59.151Z,21
2023-03-12T02:31:03.541Z,20.99
2023-03-12T02:32:08.026Z,20.98
2023-03-12T02:33:12.486Z,20.99
2023-03-12T02:34:16.805Z,20.95
2023-03-12T02:35:21.121Z,20.98
2023-03-12T02:36:25.407Z,20.97
2023-03-12T02:37:29.697Z,20.97
2023-03-12T02:38:34.069Z,20.98
2023-03-12T02:39:38.393Z,20.98
2023-03-12T02:40:45.217Z,20.98
2023-03-12T02:41:49.553Z,20.95
2023-03-12T02:42:53.851Z,20.94
2023-03-12T02:43:58.184Z,20.92
2023-03-12T02:45:02.523Z,20.95
2023-03-12T02:46:06.904Z,20.97
2023-03-12T02:47:11.665Z,20.93
2023-03-12T02:48:16.188Z,20.92
2023-03-12T02:49:20.491Z,20.93
2023-03-12T02:50:24.849Z,20.94
2023-03-12T02:51:29.180Z,20.94
2023-03-12T02:52:33.465Z,20.98
2023-03-12T02:53:37.784Z,20.94
2023-03-12T02:54:42.068Z,20.95
2023-03-12T02:55:46.394Z,20.93
2023-03-12T02:56:50.732Z,20.92
2023-03-12T02:57:55.031Z,20.93
2023-03-12T02:58:59.325Z,20.95
2023-03-12T03:00:06.974Z,20.94
2023-03-12T03:01:11.300Z,20.92
2023-03-12T03:02:15.819Z,20.92
2023-03-12T03:03:20.132Z,20.91
2023-03-12T03:04:24.537Z,20.9
2023-03-12T03:05:29.045Z,20.88
2023-03-12T03:06:33.348Z,20.9
2023-03-12T03:07:37.718Z,20.9
2023-03-12T03:08:42.030Z,20.9
2023-03-12T03:09:46.369Z,20.89
2023-03-12T03:10:50.691Z,20.9
2023-03-12T03:11:55.227Z,20.88
2023-03-12T03:12:59.562Z,20.89
2023-03-12T03:14:03.914Z,20.88
2023-03-12T03:15:08.221Z,20.89
2023-03-12T03:16:12.593Z,20.87
2023-03-12T03:17:17.299Z,20.89
2023-03-12T03:18:21.642Z,20.86
2023-03-12T03:19:25.967Z,20.87
2023-03-12T03:20:30.274Z,20.88
2023-03-12T03:21:34.591Z,20.88
2023-03-12T03:22:38.951Z,20.87
2023-03-12T03:23:43.277Z,20.85
2023-03-12T03:24:47.613Z,20.84
2023-03-12T03:25:51.924Z,20.84
2023-03-12T03:26:56.219Z,20.84
2023-03-12T03:28:00.533Z,20.83
2023-03-12T03:29:04.848Z,20.81
2023-03-12T03:30:09.232Z,20.82
2023-03-12T03:31:13.667Z,20.84
2023-03-12T03:32:18.174Z,20.82
2023-03-12T03:33:22.743Z,20.82
2023-03-12T03:34:27.105Z,20.83
2023-03-12T03:35:31.471Z,20.83
2023-03-12T03:36:35.862Z,20.82
2023-03-12T03:37:40.177Z,20.84
2023-03-12T03:38:44.527Z,20.84
2023-03-12T03:39:48.924Z,20.85
2023-03-12T03:40:53.221Z,20.83
2023-03-12T03:41:57.564Z,20.83
2023-03-12T03:43:01.952Z,20.82
2023-03-12T03:44:06.505Z,20.82
2023-03-12T03:45:10.793Z,20.83
2023-03-12T03:46:15.140Z,20.8
2023-03-12T03:47:19.652Z,20.79
2023-03-12T03:48:23.917Z,20.81
2023-03-12T03:49:28.225Z,20.79
2023-03-12T03:50:32.517Z,20.81
2023-03-12T03:51:36.796Z,20.82
2023-03-12T03:52:41.118Z,20.81
2023-03-12T03:53:45.416Z,20.8
2023-03-12T03:54:49.716Z,20.79
2023-03-12T03:55:54.049Z,20.81
2023-03-12T03:56:58.435Z,20.78
2023-03-12T03:58:02.758Z,20.79
2023-03-12T03:59:07.075Z,20.8
2023-03-12T04:00:11.443Z,20.81
2023-03-12T04:01:15.800Z,20.8
2023-03-12T04:02:20.105Z,20.77
2023-03-12T04:03:24.447Z,20.77
2023-03-12T04:04:29.034Z,20.77
2023-03-12T04:05:33.370Z,20.75
2023-03-12T04:06:37.879Z,20.73
2023-03-12T04:07:42.256Z,20.71
2023-03-12T04:08:46.563Z,20.71
2023-03-12T04:09:50.844Z,20.71
2023-03-12T04:10:55.183Z,20.75
2023-03-12T04:11:59.543Z,20.75
2023-03-12T04:13:03.947Z,20.75
2023-03-12T04:14:08.224Z,20.75
2023-03-12T04:15:12.540Z,20.76
2023-03-12T04:16:17.182Z,20.76
2023-03-12T04:17:21.771Z,20.75
2023-03-12T04:18:26.116Z,20.74
2023-03-12T04:19:30.563Z,20.75
2023-03-12T04:20:34.858Z,20.73
2023-03-12T04:21:42.172Z,20.74
2023-03-12T04:22:46.560Z,20.76
2023-03-12T04:23:50.849Z,20.74
2023-03-12T04:24:57.393Z,20.73
2023-03-12T04:26:01.729Z,20.74
2023-03-12T04:27:06.008Z,20.75
2023-03-12T04:28:10.320Z,20.75
2023-03-12T04:29:14.644Z,20.76
2023-03-12T04:30:18.987Z,20.75
2023-03-12T04:31:23.339Z,20.75
2023-03-12T04:32:27.984Z,20.74
2023-03-12T04:33:32.441Z,20.71
2023-03-12T04:34:36.777Z,20.73
2023-03-12T04:35:41.163Z,20.73
2023-03-12T04:36:45.529Z,20.71
2023-03-12T04:37:49.806Z,20.73
2023-03-12T04:38:54.131Z,20.74
2023-03-12T04:39:58.451Z,20.72
2023-03-12T04:41:02.757Z,20.73
2023-03-12T04:42:07.088Z,20.73
2023-03-12T04:43:11.380Z,20.73
2023-03-12T04:44:15.695Z,20.73
2023-03-12T04:45:20.080Z,20.7
2023-03-12T04:46:24.461Z,20.66
2023-03-12T04:47:28.875Z,20.64
2023-03-12T04:48:33.152Z,20.64
2023-03-12T04:49:37.513Z,20.67
2023-03-12T04:50:41.807Z,20.65
2023-03-12T04:51:46.156Z,20.63
2023-03-12T04:52:50.482Z,20.64
2023-03-12T04:53:54.781Z,20.64
2023-03-12T04:54:59.151Z,20.62
2023-03-12T04:56:03.454Z,20.63
2023-03-12T04:57:07.842Z,20.65
2023-03-12T04:58:12.158Z,20.68
2023-03-12T04:59:16.470Z,20.69
2023-03-12T05:00:20.754Z,20.68
2023-03-12T05:01:25.031Z,20.67
2023-03-12T05:02:29.421Z,20.64
2023-03-12T05:03:33.949Z,20.68
2023-03-12T05:04:38.361Z,20.71
2023-03-12T05:05:42.725Z,20.75
2023-03-12T05:06:47.041Z,20.79
2023-03-12T05:07:51.347Z,20.89
2023-03-12T05:08:55.690Z,20.99
2023-03-12T05:10:00.011Z,21.07
2023-03-12T05:11:04.348Z,21.19
2023-03-12T05:12:08.669Z,21.32
2023-03-12T05:13:12.963Z,21.46
2023-03-12T05:14:17.234Z,21.59
2023-03-12T05:15:21.543Z,21.72
2023-03-12T05:16:25.913Z,21.84
2023-03-12T05:17:30.486Z,21.94
2023-03-12T05:18:34.829Z,22.03
2023-03-12T05:19:39.134Z,22.08
2023-03-12T05:20:43.440Z,22.13
2023-03-12T05:21:47.773Z,22.17
2023-03-12T05:22:52.104Z,22.17
2023-03-12T05:23:56.376Z,22.18
2023-03-12T05:25:00.681Z,22.19
2023-03-12T05:26:05.019Z,22.2
2023-03-12T05:27:09.300Z,22.21
2023-03-12T05:28:13.611Z,22.21
2023-03-12T05:29:20.385Z,22.23
2023-03-12T05:30:24.722Z,22.22
2023-03-12T05:31:29.033Z,22.22
2023-03-12T05:32:33.435Z,22.2
2023-03-12T05:33:40.156Z,22.19
2023-03-12T05:34:44.496Z,22.17
2023-03-12T05:35:48.855Z,22.16
2023-03-12T05:36:53.283Z,22.18
2023-03-12T05:37:58.718Z,22.2
2023-03-12T05:39:03.079Z,22.25
2023-03-12T05:40:07.399Z,22.28
2023-03-12T05:41:11.740Z,22.33
2023-03-12T05:42:16.051Z,22.39
2023-03-12T05:43:20.382Z,22.42
2023-03-12T05:44:24.677Z,22.43
2023-03-12T05:45:29.048Z,22.43
2023-03-12T05:46:33.522Z,22.44
2023-03-12T05:47:37.820Z,22.45
2023-03-12T05:48:42.137Z,22.47
2023-03-12T05:49:46.506Z,22.47
2023-03-12T05:50:50.849Z,22.43
2023-03-12T05:51:55.181Z,22.41
2023-03-12T05:52:59.508Z,22.38
2023-03-12T05:54:03.839Z,22.37
2023-03-12T05:55:08.129Z,22.33
2023-03-12T05:56:12.452Z,22.3
2023-03-12T05:57:16.739Z,22.25
2023-03-12T05:58:21.166Z,22.22
2023-03-12T05:59:25.475Z,22.17
2023-03-12T06:00:29.797Z,22.14
2023-03-12T06:01:34.101Z,22.12
2023-03-12T06:02:38.491Z,22.09
2023-03-12T06:03:43.320Z,22.07
2023-03-12T06:04:50.119Z,22.02
2023-03-12T06:05:54.450Z,21.99
2023-03-12T06:06:58.769Z,21.98
2023-03-12T06:08:03.110Z,21.94
2023-03-12T06:09:07.422Z,21.92
2023-03-12T06:10:11.749Z,21.9
2023-03-12T06:11:16.082Z,21.89
2023-03-12T06:12:20.439Z,21.87
2023-03-12T06:13:24.761Z,21.86
2023-03-12T06:14:32.067Z,21.86
2023-03-12T06:15:36.374Z,21.84
2023-03-12T06:16:40.758Z,21.81
2023-03-12T06:17:45.464Z,21.81
2023-03-12T06:18:52.093Z,21.8
2023-03-12T06:19:56.390Z,21.79
2023-03-12T06:21:00.662Z,21.79
2023-03-12T06:22:04.965Z,21.78
2023-03-12T06:23:09.296Z,21.76
2023-03-12T06:24:13.635Z,21.73
2023-03-12T06:25:18.005Z,21.72
2023-03-12T06:26:22.300Z,21.69
2023-03-12T06:27:26.598Z,21.69
2023-03-12T06:28:30.915Z,21.67
2023-03-12T06:29:35.238Z,21.66
2023-03-12T06:30:39.551Z,21.64
2023-03-12T06:31:44.158Z,21.64
2023-03-12T06:32:48.632Z,21.62
2023-03-12T06:33:53.109Z,21.6
2023-03-12T06:34:57.454Z,21.57
2023-03-12T06:36:01.905Z,21.56
2023-03-12T06:37:06.310Z,21.57
2023-03-12T06:38:10.599Z,21.54
2023-03-12T06:39:14.915Z,21.52
2023-03-12T06:40:19.305Z,21.54
2023-03-12T06:41:23.605Z,21.52
2023-03-12T06:42:27.913Z,21.52
2023-03-12T06:43:32.185Z,21.52
2023-03-12T06:44:36.486Z,21.52
2023-03-12T06:45:40.796Z,21.57
2023-03-12T06:46:45.259Z,21.54
2023-03-12T06:47:49.825Z,21.55
2023-03-12T06:48:54.172Z,21.56
2023-03-12T06:49:58.476Z,21.61
2023-03-12T06:51:02.785Z,21.64
2023-03-12T06:52:07.351Z,21.68
2023-03-12T06:53:11.702Z,21.69
2023-03-12T06:54:16.063Z,21.72
2023-03-12T06:55:20.449Z,21.74
2023-03-12T06:56:24.758Z,21.75
2023-03-12T06:57:29.113Z,21.79
2023-03-12T06:58:33.393Z,21.8
2023-03-12T06:59:37.697Z,21.8
2023-03-12T07:00:42.023Z,21.81
2023-03-12T07:01:48.722Z,21.81
2023-03-12T07:02:53.105Z,21.82
2023-03-12T07:03:57.418Z,21.81
2023-03-12T07:05:04.245Z,21.83
2023-03-12T07:06:08.731Z,21.83
2023-03-12T07:07:13.011Z,21.8
2023-03-12T07:08:17.302Z,21.82
2023-03-12T07:09:21.607Z,21.83
2023-03-12T07:10:25.932Z,21.79
2023-03-12T07:11:30.580Z,21.78
2023-03-12T07:12:34.951Z,21.78
2023-03-12T07:13:40.241Z,21.79
2023-03-12T07:14:44.549Z,21.78
2023-03-12T07:15:48.891Z,21.73
2023-03-12T07:16:53.307Z,21.71
2023-03-12T07:17:57.626Z,21.69
2023-03-12T07:19:01.952Z,21.67
2023-03-12T07:20:06.293Z,21.64
2023-03-12T07:21:10.666Z,21.66
2023-03-12T07:22:15.012Z,21.63
2023-03-12T07:23:19.328Z,21.62
2023-03-12T07:24:23.676Z,21.61
2023-03-12T07:25:27.989Z,21.59
2023-03-12T07:26:32.305Z,21.6
2023-03-12T07:27:36.640Z,21.59
2023-03-12T07:28:41.012Z,21.59
2023-03-12T07:29:45.378Z,21.58
2023-03-12T07:30:49.800Z,21.57
2023-03-12T07:31:54.174Z,21.57
2023-03-12T07:32:58.675Z,21.6
2023-03-12T07:34:03.668Z,21.57
2023-03-12T07:35:08.558Z,21.55
2023-03-12T07:36:13.033Z,21.56
2023-03-12T07:37:17.785Z,21.59
2023-03-12T07:38:22.172Z,21.6
2023-03-12T07:39:26.742Z,21.68
2023-03-12T07:40:31.217Z,21.69
2023-03-12T07:41:35.527Z,21.68
2023-03-12T07:42:39.860Z,21.71
2023-03-12T07:43:44.527Z,21.66
2023-03-12T07:44:49.749Z,21.6
2023-03-12T07:45:54.068Z,21.57
2023-03-12T07:47:00.138Z,21.52
2023-03-12T07:48:27.208Z,21.51
2023-03-12T07:49:31.572Z,21.58
2023-03-12T07:50:35.870Z,21.55
2023-03-12T07:51:40.192Z,21.51
2023-03-12T07:52:44.507Z,21.5
2023-03-12T07:53:49.246Z,21.51
2023-03-12T07:54:53.871Z,21.46
2023-03-12T07:55:58.529Z,21.46
2023-03-12T07:57:03.436Z,21.5
2023-03-12T07:58:08.155Z,21.57
2023-03-12T07:59:12.995Z,21.58
2023-03-12T08:00:17.777Z,21.64
2023-03-12T08:01:22.317Z,21.72
2023-03-12T08:02:27.061Z,21.72
2023-03-12T08:03:32.088Z,21.76
2023-03-12T08:04:37.140Z,21.76
2023-03-12T08:05:42.124Z,21.73
2023-03-12T08:06:46.758Z,21.74
2023-03-12T08:07:51.227Z,21.75
2023-03-12T08:08:55.529Z,21.74
2023-03-12T08:09:59.945Z,21.73
2023-03-12T08:11:04.465Z,21.74
2023-03-12T08:12:08.813Z,21.74
2023-03-12T08:13:13.250Z,21.72
2023-03-12T08:14:17.768Z,21.7
2023-03-12T08:15:22.139Z,21.73
2023-03-12T08:16:26.499Z,21.72
2023-03-12T08:17:30.974Z,21.73
2023-03-12T08:18:35.324Z,21.73
2023-03-12T08:19:39.640Z,21.72
2023-03-12T08:20:44.090Z,21.72
2023-03-12T08:21:49.088Z,21.68
2023-03-12T08:22:53.555Z,21.7
2023-03-12T08:24:00.390Z,21.7
2023-03-12T08:25:05.734Z,21.74
2023-03-12T08:26:10.108Z,21.77
2023-03-12T08:27:14.435Z,21.78
2023-03-12T08:28:18.757Z,21.79
2023-03-12T08:29:23.105Z,21.78
2023-03-12T08:30:30.058Z,21.8
2023-03-12T08:31:34.959Z,21.81
2023-03-12T08:32:39.461Z,21.84
2023-03-12T08:33:44.133Z,21.86
2023-03-12T08:34:48.452Z,21.87
2023-03-12T08:35:52.870Z,21.88
2023-03-12T08:36:57.433Z,21.88
2023-03-12T08:38:01.801Z,21.87
2023-03-12T08:39:06.126Z,21.87
2023-03-12T08:40:10.456Z,21.88
2023-03-12T08:41:14.770Z,21.86
2023-03-12T08:42:20.340Z,21.86
2023-03-12T08:43:24.628Z,21.88
2023-03-12T08:44:31.529Z,21.89
2023-03-12T08:45:35.873Z,21.89
2023-03-12T08:46:40.314Z,21.89
2023-03-12T08:47:44.694Z,21.9
2023-03-12T08:48:49.004Z,21.9
2023-03-12T08:49:53.326Z,21.91
2023-03-12T08:50:57.644Z,21.91
2023-03-12T08:52:02.181Z,21.9
2023-03-12T08:53:06.460Z,21.91
2023-03-12T08:54:10.738Z,21.91
2023-03-12T08:55:16.080Z,21.93
2023-03-12T08:56:20.551Z,21.93
2023-03-12T08:57:24.867Z,21.93
2023-03-12T08:58:29.186Z,21.92
2023-03-12T08:59:33.650Z,21.93
2023-03-12T09:00:37.989Z,21.93
2023-03-12T09:01:43.778Z,21.93
2023-03-12T09:02:48.261Z,21.92
2023-03-12T09:03:52.769Z,21.93
2023-03-12T09:04:57.077Z,21.94
2023-03-12T09:06:02.387Z,21.95
2023-03-12T09:07:06.741Z,21.95
2023-03-12T09:08:11.025Z,21.96
2023-03-12T09:09:15.336Z,21.95
2023-03-12T09:10:19.672Z,21.89
2023-03-12T09:11:23.966Z,21.87
2023-03-12T09:12:28.307Z,21.87
2023-03-12T09:13:50.678Z,21.87
2023-03-12T09:16:05.191Z,21.83
2023-03-12T09:17:09.485Z,21.83
2023-03-12T09:18:13.840Z,21.81
2023-03-12T09:19:18.187Z,21.82
2023-03-12T09:20:22.578Z,21.83
2023-03-12T09:21:26.866Z,21.86
2023-03-12T09:22:31.178Z,21.87
2023-03-12T09:23:35.476Z,21.94
2023-03-12T09:24:39.807Z,21.99
2023-03-12T09:25:44.119Z,22.09
2023-03-12T09:26:48.434Z,22.16
2023-03-12T09:27:52.765Z,22.2
2023-03-12T09:28:57.075Z,22.22
2023-03-12T09:30:01.590Z,22.25
2023-03-12T09:31:06.144Z,22.25
2023-03-12T09:32:10.692Z,22.28
2023-03-12T09:33:14.972Z,22.3
2023-03-12T09:34:19.238Z,22.31
2023-03-12T09:35:23.615Z,22.33
2023-03-12T09:36:27.904Z,22.3
2023-03-12T09:37:32.280Z,22.33
2023-03-12T09:38:36.637Z,22.31
2023-03-12T09:39:41.123Z,22.31
2023-03-12T09:40:45.436Z,22.32
2023-03-12T09:41:49.751Z,22.32
2023-03-12T09:42:54.065Z,22.31
2023-03-12T09:43:59.373Z,22.29
2023-03-12T09:45:03.699Z,22.3
2023-03-12T09:46:08.181Z,22.29
2023-03-12T09:47:12.764Z,22.27
2023-03-12T09:48:17.094Z,22.28
2023-03-12T09:49:21.413Z,22.26
2023-03-12T09:50:25.880Z,22.25
2023-03-12T09:51:30.203Z,22.27
2023-03-12T09:52:34.524Z,22.27
2023-03-12T09:53:38.824Z,22.3
2023-03-12T09:54:43.988Z,22.25
2023-03-12T09:55:50.857Z,22.3
2023-03-12T09:56:58.134Z,22.28
2023-03-12T09:58:02.491Z,22.28
2023-03-12T09:59:06.861Z,22.25
2023-03-12T10:00:11.178Z,22.23
2023-03-12T10:01:15.486Z,22.24
2023-03-12T10:02:19.769Z,22.24
2023-03-12T10:03:24.117Z,22.24
2023-03-12T10:04:28.671Z,22.24
2023-03-12T10:05:33.147Z,22.23
2023-03-12T10:06:37.428Z,22.23
2023-03-12T10:07:41.763Z,22.22
2023-03-12T10:08:46.141Z,22.22
2023-03-12T10:09:50.687Z,22.2
2023-03-12T10:10:55.107Z,22.19
2023-03-12T10:11:59.392Z,22.18
2023-03-12T10:13:03.661Z,22.17
2023-03-12T10:14:07.987Z,22.18
2023-03-12T10:15:12.396Z,22.18
2023-03-12T10:16:16.818Z,22.17
2023-03-12T10:17:21.322Z,22.17
2023-03-12T10:18:25.830Z,22.18
2023-03-12T10:19:30.549Z,22.17
2023-03-12T10:20:34.996Z,22.17
2023-03-12T10:21:39.288Z,22.17
2023-03-12T10:22:43.624Z,22.17
2023-03-12T10:23:47.971Z,22.17
2023-03-12T10:24:52.248Z,22.17
2023-03-12T10:25:56.545Z,22.17
2023-03-12T10:27:00.846Z,22.18
2023-03-12T10:28:05.226Z,22.16
2023-03-12T10:29:09.555Z,22.17
2023-03-12T10:30:13.891Z,22.17
2023-03-12T10:31:18.255Z,22.18
2023-03-12T10:32:22.764Z,22.18
2023-03-12T10:33:27.187Z,22.17
2023-03-12T10:34:31.457Z,22.17
2023-03-12T10:35:35.785Z,22.17
2023-03-12T10:36:40.337Z,22.18
2023-03-12T10:37:44.662Z,22.18
2023-03-12T10:38:48.965Z,22.17
2023-03-12T10:39:53.268Z,22.18
2023-03-12T10:40:57.573Z,22.16
2023-03-12T10:42:01.873Z,22.16
2023-03-12T10:43:06.175Z,22.15
2023-03-12T10:44:10.602Z,22.15
2023-03-12T10:45:14.899Z,22.15
2023-03-12T10:46:22.600Z,22.15
2023-03-12T10:47:27.009Z,22.14
2023-03-12T10:48:31.315Z,22.15
2023-03-12T10:49:38.003Z,22.12
2023-03-12T10:50:42.402Z,22.09
2023-03-12T10:51:46.746Z,22.07
2023-03-12T10:52:51.056Z,22.06
2023-03-12T10:53:55.410Z,22.02
2023-03-12T10:54:59.824Z,22.01
2023-03-12T10:56:05.231Z,21.99
2023-03-12T10:57:09.646Z,21.96
2023-03-12T10:58:13.954Z,21.94
2023-03-12T10:59:18.234Z,21.94
2023-03-12T11:00:22.633Z,21.93
2023-03-12T11:01:27.111Z,21.93
2023-03-12T11:02:31.666Z,21.92
2023-03-12T11:03:36.243Z,21.9
2023-03-12T11:04:40.622Z,21.87
2023-03-12T11:05:45.282Z,21.84
2023-03-12T11:06:49.741Z,21.83
2023-03-12T11:07:54.048Z,21.84
2023-03-12T11:09:10.172Z,21.85
2023-03-12T11:10:20.957Z,21.87
2023-03-12T11:11:25.680Z,21.9
2023-03-12T11:12:29.947Z,21.92
2023-03-12T11:13:34.310Z,21.99
2023-03-12T11:14:38.686Z,22.03
2023-03-12T11:15:43.077Z,22.07
2023-03-12T11:16:47.519Z,22.14
2023-03-12T11:17:51.839Z,22.17
2023-03-12T11:18:56.157Z,22.2
2023-03-12T11:20:00.508Z,22.24
2023-03-12T11:21:05.076Z,22.27
2023-03-12T11:22:09.404Z,22.3
2023-03-12T11:23:13.690Z,22.32
2023-03-12T11:24:18.085Z,22.3
2023-03-12T11:25:22.405Z,22.3
2023-03-12T11:26:26.714Z,22.29
2023-03-12T11:27:32.070Z,22.28
2023-03-12T11:28:36.437Z,22.27
2023-03-12T11:29:40.944Z,22.26
2023-03-12T11:30:45.409Z,22.25
2023-03-12T11:31:50.976Z,22.21
2023-03-12T11:32:55.543Z,22.2
2023-03-12T11:34:00.070Z,22.2
2023-03-12T11:35:04.520Z,22.17
2023-03-12T11:36:09.075Z,22.17
2023-03-12T11:37:13.389Z,22.16
2023-03-12T11:38:17.772Z,22.12
2023-03-12T11:39:22.089Z,22.11
2023-03-12T11:40:26.391Z,22.12
2023-03-12T11:41:30.747Z,22.1
2023-03-12T11:42:35.075Z,22.09
2023-03-12T11:43:43.489Z,22.08
2023-03-12T11:44:48.329Z,22.05
2023-03-12T11:45:52.641Z,22.04
2023-03-12T11:46:57.023Z,22.02
2023-03-12T11:48:01.423Z,22.04
2023-03-12T11:49:05.723Z,22.06
2023-03-12T11:50:10.237Z,22.03
2023-03-12T11:51:14.603Z,22.02
2023-03-12T11:52:18.943Z,22.03
2023-03-12T11:53:23.309Z,22.03
2023-03-12T11:54:27.614Z,22.02
2023-03-12T11:55:31.891Z,22.01
2023-03-12T11:56:36.229Z,22
2023-03-12T11:57:43.728Z,22
2023-03-12T11:58:48.028Z,21.98
2023-03-12T11:59:52.436Z,21.95
2023-03-12T12:00:56.737Z,21.92
2023-03-12T12:02:01.152Z,21.88
2023-03-12T12:03:05.648Z,21.86
2023-03-12T12:04:10.117Z,21.84
2023-03-12T12:05:14.480Z,21.82
2023-03-12T12:06:18.780Z,21.8
2023-03-12T12:07:23.101Z,21.79
2023-03-12T12:08:27.515Z,21.76
2023-03-12T12:09:31.878Z,21.75
2023-03-12T12:10:36.171Z,21.74
2023-03-12T12:11:40.554Z,21.73
2023-03-12T12:12:44.908Z,21.71
2023-03-12T12:13:49.279Z,21.71
2023-03-12T12:14:53.552Z,21.69
2023-03-12T12:15:57.815Z,21.67
2023-03-12T12:17:02.139Z,21.68
2023-03-12T12:18:06.432Z,21.69
2023-03-12T12:19:10.721Z,21.68
2023-03-12T12:20:15.029Z,21.67
2023-03-12T12:21:19.359Z,21.66
2023-03-12T12:22:24.131Z,21.66
2023-03-12T12:23:28.692Z,21.65
2023-03-12T12:24:33.151Z,21.64
2023-03-12T12:25:37.619Z,21.65
2023-03-12T12:26:42.302Z,21.63
2023-03-12T12:27:46.659Z,21.61
2023-03-12T12:28:50.987Z,21.59
2023-03-12T12:29:55.335Z,21.63
2023-03-12T12:30:59.655Z,21.62
2023-03-12T12:32:04.055Z,21.63
2023-03-12T12:33:08.689Z,21.68
2023-03-12T12:34:13.045Z,21.69
2023-03-12T12:35:17.365Z,21.72
2023-03-12T12:36:21.678Z,21.74
2023-03-12T12:37:26.034Z,21.77
2023-03-12T12:38:30.366Z,21.78
2023-03-12T12:39:34.748Z,21.83
2023-03-12T12:40:39.065Z,21.85
2023-03-12T12:41:43.399Z,21.86
2023-03-12T12:42:47.713Z,21.87
2023-03-12T12:43:52.020Z,21.9
2023-03-12T12:44:56.390Z,21.91
2023-03-12T12:46:00.758Z,21.95
2023-03-12T12:47:05.171Z,21.98
2023-03-12T12:48:09.471Z,22
2023-03-12T12:49:13.803Z,22.02
2023-03-12T12:50:18.327Z,22.02
2023-03-12T12:51:22.683Z,22.05
2023-03-12T12:52:26.982Z,22.06
2023-03-12T12:53:31.297Z,22.06
2023-03-12T12:54:35.639Z,22.07
2023-03-12T12:55:40.217Z,22.07
2023-03-12T12:56:44.530Z,22.08
2023-03-12T12:57:48.835Z,22.07
2023-03-12T12:58:53.148Z,22.05
2023-03-12T12:59:57.453Z,22.03
2023-03-12T13:01:01.763Z,22.03
2023-03-12T13:02:06.174Z,22.02
2023-03-12T13:03:10.490Z,22
2023-03-12T13:04:14.822Z,22.01
2023-03-12T13:05:19.412Z,21.99
2023-03-12T13:06:23.702Z,21.98
2023-03-12T13:07:28.258Z,21.98
2023-03-12T13:08:32.547Z,21.96
2023-03-12T13:09:36.857Z,21.95
2023-03-12T13:10:45.090Z,21.94
2023-03-12T13:12:21.667Z,21.92
2023-03-12T13:13:27.567Z,21.93
2023-03-12T13:14:31.911Z,21.94
2023-03-12T13:15:36.327Z,21.92
2023-03-12T13:16:40.793Z,21.92
2023-03-12T13:17:45.104Z,21.92
2023-03-12T13:18:49.436Z,21.91
2023-03-12T13:20:00.758Z,21.9
2023-03-12T13:21:05.715Z,21.89
2023-03-12T13:22:10.078Z,21.88
2023-03-12T13:23:14.398Z,21.87
2023-03-12T13:24:18.731Z,21.85
2023-03-12T13:25:23.094Z,21.85
2023-03-12T13:26:27.453Z,21.83
2023-03-12T13:27:31.768Z,21.83
2023-03-12T13:28:36.075Z,21.82
2023-03-12T13:29:40.383Z,21.81
2023-03-12T13:30:44.785Z,21.8
2023-03-12T13:31:49.341Z,21.78
2023-03-12T13:32:53.747Z,21.78
2023-03-12T13:33:58.242Z,21.77
2023-03-12T13:35:02.597Z,21.76
2023-03-12T13:36:07.090Z,21.74
2023-03-12T13:37:11.653Z,21.75
2023-03-12T13:38:16.267Z,21.76
2023-03-12T13:39:20.582Z,21.76
2023-03-12T13:40:24.858Z,21.74
2023-03-12T13:41:30.916Z,21.73
2023-03-12T13:42:36.153Z,21.68
2023-03-12T13:43:40.432Z,21.66
2023-03-12T13:44:44.724Z,21.68
2023-03-12T13:45:49.100Z,21.63
2023-03-12T13:46:53.494Z,21.6
2023-03-12T13:47:57.825Z,21.6
2023-03-12T13:49:02.123Z,21.62
2023-03-12T13:50:06.515Z,21.63
2023-03-12T13:51:10.817Z,21.65
2023-03-12T13:52:15.446Z,21.66
2023-03-12T13:53:19.783Z,21.67
2023-03-12T13:54:24.107Z,21.7
2023-03-12T13:55:28.442Z,21.72
2023-03-12T13:56:32.731Z,21.69